NCAR-RAP Real-Time Weather Data

Output produced by METARs form (23 January 2018  15:52 UTC)
found at http://weather.rap.ucar.edu/surface/
 
RJSC 231000Z 01011KT 1600 R01/0750VP2000U -SHSN FEW002 SCT008 BKN015 M01/M01 Q1004
RJSC 230900Z 36008KT 7000 -SHSN FEW002 SCT020 BKN030 M01/M01 Q1003
RJSC 230838Z 01006KT 340V040 4000 -SHSN FEW002 SCT008 BKN020 M00/M01 Q1003 RMK 1ST002 4ST008 7CU020 A2962
RJSC 230800Z 31003KT 280V350 2000 -SHSN FEW002 SCT008 BKN015 00/00 Q1002
RJSC 230726Z 22005KT 190V250 4000 R01/1300VP2000U -SHSN FEW002 SCT008 BKN020 00/00 Q1001 RMK 1ST002 4ST008 7CU020 A2957
RJSC 230700Z 22005KT 0700 R01/1200VP2000D SHSN FEW002 SCT005 BKN007 00/00 Q1001
RJSC 230635Z 26006KT 230V300 0700 R01/2000N SHSN FEW002 SCT005 BKN007 01/00 Q1001 RMK 1ST002 4ST005 7ST007 A2956
RJSC 230616Z 25008KT 220V290 1500 R01/P2000N -SHSN FEW002 SCT005 BKN010 02/M01 Q1000 RMK 1ST002 4ST005 7ST010 A2955
RJSC 230600Z 26013G24KT 230V290 7000 -SHSN FEW002 SCT015 BKN030 02/M01 Q1000
RJSC 230500Z 17004KT 120V260 7000 -SHSN FEW002 SCT020 BKN030 01/01 Q0999
RJSC 230439Z 18005KT 140V220 2000 R01/2000N -SHSN FEW002 SCT007 BKN015 01/01 Q0999 RMK 1ST002 4ST007 7CU015 A2950
RJSC 230429Z 18007KT 110V230 1200 R01/1000V2000U -SHSN FEW002 SCT005 BKN008 M01/M01 Q0999 RMK 1ST002 4ST005 7ST008 A2951
RJSC 230400Z VRB02KT 0700 R01/0900V1200D SHSN FEW002 SCT005 BKN006 M01/M01 Q0999
RJSC 230325Z VRB01KT 1200 R01/0500V1500U -SHSN FEW002 SCT005 BKN008 M01/M02 Q0999 RMK 1ST002 4ST005 7ST008 A2950
RJSC 230317Z VRB01KT 0700 R01/0500V1300D SHSN FEW002 SCT005 BKN008 M01/M02 Q0999 RMK 1ST002 4ST005 7ST008 A2952
RJSC 230316Z VRB01KT 0700 R01/0500V1300D SHSN FEW002 SCT005 BKN008 M01/M02 Q0999 RMK 1ST002 4ST005 7ST008 A2952
RJSC 230300Z VRB01KT 1200 R01/1200VP2000N -SHSN FEW002 SCT007 BKN008 M01/M02 Q0999
RJSC 230241Z 00000KT 0900 R01/0700VP2000D SHSN FEW002 SCT007 BKN008 M01/M02 Q1000 RMK 1ST002 4ST007 7ST008 A2954
RJSC 230200Z 00000KT 5000 -SHSN FEW003 SCT010 BKN015 M01/M02 Q1001
RJSC 230123Z 18004KT 2400 -SHSN FEW002 SCT008 BKN010 M02/M03 Q1002 RMK 1ST002 4ST008 7ST010 A2959
RJSC 230100Z 20004KT 7000 -SHSN FEW003 SCT035 BKN045 M02/M03 Q1002
RJSC 230000Z 23003KT 190V260 7000 FEW003 SCT040 BKN050 M02/M03 Q1003
RJSC 222300Z 11004KT 080V150 5000 -SHSN BR FEW001 SCT040 BKN050 M03/M03 Q1004
RJSC 222240Z 13004KT 090V160 3000 BCFG BR FEW001 SCT040 BKN050 M04/M04 Q1004 RMK 2ST001 3CU040 6CU050 A2967
RJSC 221000Z 15003KT 1600 R01/1700N -SN FEW003 SCT006 BKN008 M03/M03 Q1016
RJSC 220900Z VRB01KT 1600 -SN FEW003 SCT006 BKN008 M03/M04 Q1017
RJSC 220800Z 24003KT 2500 -SN FEW003 SCT008 BKN010 M02/M04 Q1017
RJSC 220700Z 27003KT 200V340 9999 -SN FEW005 SCT020 BKN030 M01/M06 Q1017
RJSC 220600Z VRB01KT 9999 FEW010 SCT020 BKN040 M01/M07 Q1017
RJSC 220500Z 19004KT 9999 FEW030 SCT060 BKN070 M01/M07 Q1017
RJSC 220400Z VRB01KT 9999 FEW030 SCT080 BKN090 M02/M06 Q1018
RJSC 220300Z 00000KT 9999 FEW030 SCT090 BKN/// M02/M06 Q1020
RJSC 220200Z 35003KT 290V020 9999 FEW050 SCT100 BKN/// M03/M06 Q1021
RJSC 220100Z VRB01KT 9999 FEW025 SCT130 BKN/// M03/M05 Q1023
RJSC 220000Z 00000KT 9999 FEW025 SCT140 BKN/// M05/M06 Q1023
RJSC 212300Z 06002KT 9999 FEW025 SCT140 BKN150 M06/M06 Q1023
RJSC 212240Z 31001KT 9999 FEW030 SCT140 BKN160 M06/M07 Q1023 RMK 1CU030 3AC140 7AC160 A3023
RJSC 211000Z 01012KT 8000 -SHSN FEW005 SCT020 BKN030 M01/M04 Q1020
RJSC 210900Z 02016KT 6000 -SHSN FEW005 SCT030 BKN040 M01/M03 Q1020
RJSC 210800Z 01018KT 9999 FEW005 SCT050 BKN060 M01/M04 Q1019
RJSC 210700Z 02020KT 9999 FEW005 SCT030 BKN060 00/M03 Q1017
RJSC 210600Z 02017KT 8000 -SHSN FEW005 SCT020 BKN030 01/M02 Q1015
RJSC 210536Z 01017KT 4000 -SHSN FEW003 SCT010 BKN020 01/M01 Q1015 RMK 1ST003 3ST010 7CU020 A2999
RJSC 210512Z 01018KT 2000 -SHSN FEW003 SCT010 BKN015 01/M01 Q1015 RMK 1ST003 3ST010 7CU015 A2997
RJSC 210500Z 02016KT 5000 -SHSN FEW008 SCT015 BKN020 01/M00 Q1014
RJSC 210406Z 35012KT 4000 -SHSN FEW005 SCT015 BKN030 01/00 Q1014 RMK 1ST005 3CU015 7CU030 A2994
RJSC 210400Z 35011KT 6000 -SHSN FEW015 SCT020 BKN030 01/M00 Q1014